Time;durP1;ratioP1;P1;durP2;ratioP2;P2;SDS_P1;SDS_P2;PMS_P1;PMS_P2;Temp;Humidity;BMP_temperature;BMP_pressure;BME280_temperature;BME280_humidity;BME280_pressure;Samples;Min_cycle;Max_cycle;Signal;HPM_P1;HPM_P2
2021/11/29 00:01:25;;;;;;;20.73;13.55;;;4.00;99.90;;;;;;5056591;28;20255;-67
2021/11/29 00:03:52;;;;;;;15.05;10.90;;;4.00;99.90;;;;;;5056592;28;20242;-68
2021/11/29 00:06:19;;;;;;;16.27;11.15;;;4.00;99.90;;;;;;5056340;28;20290;-67
2021/11/29 00:08:46;;;;;;;18.45;10.82;;;3.90;99.90;;;;;;5056294;28;20261;-68
2021/11/29 00:11:13;;;;;;;16.27;10.30;;;3.90;99.90;;;;;;5056170;28;20262;-67
2021/11/29 00:13:42;;;;;;;18.55;11.15;;;3.70;99.90;;;;;;5056043;28;20290;-68
2021/11/29 00:16:09;;;;;;;15.05;9.55;;;3.70;99.90;;;;;;5055824;28;20211;-67
2021/11/29 00:18:36;;;;;;;17.08;9.18;;;3.70;99.90;;;;;;5056221;28;20290;-68
2021/11/29 00:21:04;;;;;;;16.98;11.02;;;3.60;99.90;;;;;;5056130;28;20223;-68
2021/11/29 00:23:32;;;;;;;19.30;12.27;;;3.60;99.90;;;;;;5056048;28;20299;-67
2021/11/29 00:25:58;;;;;;;20.27;12.68;;;3.60;99.90;;;;;;5055684;28;20661;-67
2021/11/29 00:28:25;;;;;;;23.38;13.30;;;3.60;99.90;;;;;;5055734;28;20315;-68
2021/11/29 00:30:54;;;;;;;21.95;13.25;;;3.60;99.90;;;;;;5055715;28;20344;-68
2021/11/29 00:33:20;;;;;;;22.98;14.00;;;3.60;99.90;;;;;;5055813;28;20203;-68
2021/11/29 00:35:47;;;;;;;23.42;14.48;;;3.50;99.90;;;;;;5055725;28;20301;-67
2021/11/29 00:38:15;;;;;;;27.05;16.33;;;3.50;99.90;;;;;;5055754;28;20306;-68
2021/11/29 00:40:43;;;;;;;22.63;14.93;;;3.50;99.90;;;;;;5055509;28;20223;-67
2021/11/29 00:43:10;;;;;;;24.52;14.98;;;3.60;99.90;;;;;;5055781;28;20633;-67
2021/11/29 00:45:37;;;;;;;25.42;14.65;;;3.40;99.90;;;;;;5055412;28;20246;-67
2021/11/29 00:48:06;;;;;;;25.50;15.95;;;3.50;99.90;;;;;;5055652;28;20254;-68
2021/11/29 00:50:37;;;;;;;26.77;15.60;;;3.50;99.90;;;;;;5055635;28;20307;-68
2021/11/29 00:53:04;;;;;;;24.95;16.17;;;3.50;99.90;;;;;;5055658;28;20192;-68
2021/11/29 00:55:31;;;;;;;25.80;16.27;;;3.60;99.90;;;;;;5055381;28;20608;-68
2021/11/29 00:57:58;;;;;;;22.52;15.07;;;3.50;99.90;;;;;;5055238;28;20242;-67
2021/11/29 01:00:27;;;;;;;26.60;16.73;;;3.60;99.90;;;;;;5055232;28;20261;-68
2021/11/29 01:02:54;;;;;;;23.63;14.75;;;3.60;99.90;;;;;;5055306;28;20213;-68
2021/11/29 01:05:23;;;;;;;25.77;16.92;;;3.70;99.90;;;;;;5055031;28;20289;-67
2021/11/29 01:07:51;;;;;;;24.50;15.52;;;3.60;99.90;;;;;;5054159;28;20310;-68
2021/11/29 01:10:19;;;;;;;25.38;15.35;;;3.60;99.90;;;;;;5055232;28;20310;-67
2021/11/29 01:12:47;;;;;;;25.60;14.95;;;3.70;99.90;;;;;;5055196;28;20302;-67
2021/11/29 01:15:17;;;;;;;23.58;16.33;;;3.70;99.90;;;;;;5054806;28;20208;-68
2021/11/29 01:17:44;;;;;;;25.35;16.58;;;3.70;99.90;;;;;;5055117;28;20231;-67
2021/11/29 01:20:12;;;;;;;28.02;16.70;;;3.70;99.90;;;;;;5054747;28;20315;-68
2021/11/29 01:22:42;;;;;;;26.23;16.05;;;3.70;99.90;;;;;;5055034;28;20242;-68
2021/11/29 01:25:09;;;;;;;28.23;16.35;;;3.80;99.90;;;;;;5054778;28;20286;-68
2021/11/29 01:27:36;;;;;;;29.23;16.40;;;3.80;99.90;;;;;;5054865;28;20630;-68
2021/11/29 01:30:07;;;;;;;25.00;15.60;;;3.80;99.90;;;;;;5054790;28;20728;-67
2021/11/29 01:32:35;;;;;;;27.40;15.88;;;3.80;99.90;;;;;;5054888;28;20282;-67
2021/11/29 01:35:05;;;;;;;26.33;17.38;;;3.80;99.90;;;;;;5054419;28;20246;-68
2021/11/29 01:37:32;;;;;;;26.88;16.80;;;3.90;99.90;;;;;;5054692;28;20246;-67
2021/11/29 01:40:00;;;;;;;31.45;18.35;;;3.90;99.90;;;;;;5054544;28;20626;-67
2021/11/29 01:42:27;;;;;;;29.33;18.70;;;3.90;99.90;;;;;;5054738;28;20295;-67
2021/11/29 01:44:54;;;;;;;29.17;17.58;;;3.90;99.90;;;;;;5054278;28;20299;-68
2021/11/29 01:47:22;;;;;;;29.42;18.52;;;3.90;99.90;;;;;;5054586;28;20207;-67
2021/11/29 01:49:49;;;;;;;30.27;18.65;;;3.80;99.90;;;;;;5054138;28;20230;-68
2021/11/29 01:52:17;;;;;;;29.20;17.88;;;3.60;99.90;;;;;;5054291;28;20230;-67
2021/11/29 01:54:44;;;;;;;28.17;19.08;;;3.70;99.90;;;;;;5054116;28;20246;-67
2021/11/29 01:57:12;;;;;;;28.20;16.67;;;3.70;99.90;;;;;;5054337;28;20235;-67
2021/11/29 01:59:39;;;;;;;28.98;18.55;;;3.60;99.90;;;;;;5054188;28;20699;-67
2021/11/29 02:02:06;;;;;;;28.83;18.38;;;3.60;99.90;;;;;;5054231;28;20238;-67
2021/11/29 02:04:33;;;;;;;29.65;16.70;;;3.60;99.90;;;;;;5054053;28;20306;-67
2021/11/29 02:07:00;;;;;;;26.65;17.25;;;3.60;99.90;;;;;;5054420;28;20294;-67
2021/11/29 02:09:27;;;;;;;28.50;16.40;;;3.50;99.90;;;;;;5053988;28;20314;-67
2021/11/29 02:11:55;;;;;;;29.30;18.67;;;3.60;99.90;;;;;;5054154;28;20295;-67
2021/11/29 02:14:23;;;;;;;28.40;18.88;;;3.50;99.90;;;;;;5053929;28;20199;-68
2021/11/29 02:16:50;;;;;;;34.25;20.58;;;3.50;99.90;;;;;;5053705;28;20245;-67
2021/11/29 02:19:18;;;;;;;33.17;19.08;;;3.30;99.90;;;;;;5053802;28;20286;-67
2021/11/29 02:21:46;;;;;;;32.13;20.98;;;3.30;99.90;;;;;;5054033;28;20199;-67
2021/11/29 02:24:13;;;;;;;32.65;19.33;;;3.40;99.90;;;;;;5053925;28;20238;-67
2021/11/29 02:26:40;;;;;;;34.08;21.08;;;3.50;99.90;;;;;;5053624;28;20749;-67
2021/11/29 02:29:09;;;;;;;35.67;21.17;;;3.60;99.90;;;;;;5053593;28;20259;-68
2021/11/29 02:31:39;;;;;;;31.35;19.35;;;3.50;99.90;;;;;;5053860;28;20239;-67
2021/11/29 02:34:08;;;;;;;29.73;17.02;;;3.60;99.90;;;;;;5053739;28;20285;-67
2021/11/29 02:36:35;;;;;;;31.88;18.98;;;3.60;99.90;;;;;;5053529;28;20298;-67
2021/11/29 02:39:05;;;;;;;33.13;21.15;;;3.50;99.90;;;;;;5053605;28;20290;-68
2021/11/29 02:41:32;;;;;;;33.55;21.02;;;3.50;99.90;;;;;;5053769;28;20283;-67
2021/11/29 02:43:59;;;;;;;36.15;20.70;;;3.50;99.90;;;;;;5053374;28;20669;-67
2021/11/29 02:46:26;;;;;;;33.03;20.77;;;3.60;99.90;;;;;;5053263;28;20239;-67
2021/11/29 02:48:54;;;;;;;33.90;20.30;;;3.70;99.90;;;;;;5053370;28;20259;-67
2021/11/29 02:51:23;;;;;;;30.75;18.85;;;3.70;99.90;;;;;;5053500;28;20258;-67
2021/11/29 02:53:52;;;;;;;33.50;21.30;;;3.70;99.90;;;;;;5053442;28;20295;-67
2021/11/29 02:56:20;;;;;;;37.33;21.98;;;3.70;99.90;;;;;;5053311;28;20231;-68
2021/11/29 02:58:47;;;;;;;36.78;22.65;;;3.60;99.90;;;;;;5053407;28;20238;-67
2021/11/29 03:01:14;;;;;;;39.83;23.27;;;3.60;99.90;;;;;;5053088;28;20273;-67
2021/11/29 03:03:48;;;;;;;32.72;19.65;;;3.70;99.90;;;;;;5053425;28;20614;-67
2021/11/29 03:06:15;;;;;;;30.77;19.90;;;3.70;99.90;;;;;;5053022;28;20655;-67
2021/11/29 03:08:43;;;;;;;36.30;23.27;;;3.70;99.90;;;;;;5053344;28;20310;-67
2021/11/29 03:11:10;;;;;;;35.53;23.40;;;3.50;99.90;;;;;;5053409;28;20772;-67
2021/11/29 03:13:39;;;;;;;37.50;23.45;;;3.50;99.90;;;;;;5053320;28;20243;-67
2021/11/29 03:16:06;;;;;;;37.80;22.60;;;3.50;99.90;;;;;;5052867;28;20250;-68
2021/11/29 03:18:35;;;;;;;36.58;22.75;;;3.50;99.90;;;;;;5053221;28;20744;-67
2021/11/29 03:21:02;;;;;;;36.90;22.17;;;3.50;99.90;;;;;;5052918;28;20713;-67
2021/11/29 03:23:30;;;;;;;32.75;20.27;;;3.50;99.90;;;;;;5053259;28;20247;-67
2021/11/29 03:25:57;;;;;;;38.08;24.25;;;3.40;99.90;;;;;;5053030;28;20239;-67
2021/11/29 03:28:24;;;;;;;35.30;23.38;;;3.50;99.90;;;;;;5052975;28;20737;-67
2021/11/29 03:30:52;;;;;;;39.20;23.23;;;3.50;99.90;;;;;;5053214;28;20317;-67
2021/11/29 03:33:19;;;;;;;32.70;22.00;;;3.50;99.90;;;;;;5057045;28;20294;-67
2021/11/29 03:35:46;;;;;;;36.55;22.15;;;3.50;99.90;;;;;;5056663;28;20241;-67
2021/11/29 03:38:13;;;;;;;37.55;22.45;;;3.50;99.90;;;;;;5056786;28;20246;-67
2021/11/29 03:40:40;;;;;;;36.05;23.33;;;3.50;99.90;;;;;;5057024;28;20743;-67
2021/11/29 03:43:07;;;;;;;36.50;23.23;;;3.60;99.90;;;;;;5056892;28;20290;-67
2021/11/29 03:45:35;;;;;;;32.53;20.15;;;3.60;99.90;;;;;;5056588;28;20294;-67
2021/11/29 03:48:04;;;;;;;30.92;19.58;;;3.60;99.90;;;;;;5056694;28;20302;-67
2021/11/29 03:50:31;;;;;;;31.33;18.92;;;3.50;99.90;;;;;;5056643;28;20333;-67
2021/11/29 03:52:58;;;;;;;36.45;21.10;;;3.40;99.90;;;;;;5056697;28;20234;-67
2021/11/29 03:55:25;;;;;;;29.55;19.80;;;3.40;99.90;;;;;;5056450;28;20246;-67
2021/11/29 03:57:52;;;;;;;35.65;21.95;;;3.40;99.90;;;;;;5056436;28;20290;-67
2021/11/29 04:00:20;;;;;;;33.97;20.10;;;3.40;99.90;;;;;;5056476;28;20310;-67
2021/11/29 04:02:47;;;;;;;35.20;22.25;;;3.40;99.90;;;;;;5056309;28;20242;-67
2021/11/29 04:05:15;;;;;;;31.35;19.35;;;3.40;99.90;;;;;;5056150;28;20681;-67
2021/11/29 04:07:43;;;;;;;32.38;19.98;;;3.50;99.90;;;;;;5056457;28;20203;-67
2021/11/29 04:10:10;;;;;;;34.47;21.90;;;3.60;99.90;;;;;;5056139;28;20267;-67
2021/11/29 04:12:38;;;;;;;34.53;21.33;;;3.70;99.90;;;;;;5056392;28;20632;-67
2021/11/29 04:15:06;;;;;;;31.63;20.75;;;3.70;99.90;;;;;;5055870;28;20293;-67
2021/11/29 04:17:33;;;;;;;29.65;19.77;;;3.80;99.90;;;;;;5056316;28;20234;-67
2021/11/29 04:20:00;;;;;;;29.15;20.08;;;3.70;99.90;;;;;;5056035;28;20322;-67
2021/11/29 04:22:28;;;;;;;28.25;17.90;;;3.70;99.90;;;;;;5056259;28;20255;-67
2021/11/29 04:24:58;;;;;;;31.15;19.25;;;3.70;99.90;;;;;;5055815;28;20208;-67
2021/11/29 04:27:25;;;;;;;34.55;20.73;;;3.70;99.90;;;;;;5056096;28;20207;-67
2021/11/29 04:29:52;;;;;;;32.35;21.55;;;3.60;99.90;;;;;;5055865;28;20277;-67
2021/11/29 04:32:18;;;;;;;32.65;21.55;;;3.60;99.90;;;;;;5055978;28;20239;-67
2021/11/29 04:34:45;;;;;;;34.83;20.02;;;3.60;99.90;;;;;;5055592;28;20294;-67
2021/11/29 04:37:12;;;;;;;29.90;19.83;;;3.60;99.90;;;;;;5055926;28;20296;-67
2021/11/29 04:39:41;;;;;;;34.45;20.50;;;3.70;99.90;;;;;;5055767;28;20219;-67
2021/11/29 04:42:08;;;;;;;33.15;20.38;;;3.80;99.90;;;;;;5055405;28;20576;-67
2021/11/29 04:44:34;;;;;;;35.65;21.52;;;3.50;99.90;;;;;;5054718;28;20235;-67
2021/11/29 04:47:01;;;;;;;32.60;19.48;;;3.50;99.90;;;;;;5055606;28;20239;-67
2021/11/29 04:49:28;;;;;;;33.15;19.80;;;3.50;99.90;;;;;;5055369;28;20265;-67
2021/11/29 04:51:55;;;;;;;35.35;20.90;;;3.40;99.90;;;;;;5055484;28;20290;-67
2021/11/29 04:54:22;;;;;;;31.95;18.50;;;3.60;99.90;;;;;;5055532;28;20312;-67
2021/11/29 04:56:50;;;;;;;32.95;17.90;;;3.60;99.90;;;;;;5055496;28;20207;-67
2021/11/29 04:59:17;;;;;;;29.02;17.50;;;3.50;99.90;;;;;;5055437;28;20290;-67
2021/11/29 05:01:44;;;;;;;26.92;17.92;;;3.60;99.90;;;;;;5055525;28;20298;-67
2021/11/29 05:04:11;;;;;;;32.30;18.08;;;3.60;99.90;;;;;;5055407;28;20294;-67
2021/11/29 05:06:38;;;;;;;31.10;18.30;;;3.60;99.90;;;;;;5055127;28;20203;-68
2021/11/29 05:09:06;;;;;;;31.27;18.77;;;3.60;99.90;;;;;;5055074;28;20226;-68
2021/11/29 05:11:33;;;;;;;28.67;17.48;;;3.60;99.90;;;;;;5055293;28;20561;-67
2021/11/29 05:14:01;;;;;;;33.17;20.30;;;3.70;99.90;;;;;;5055246;28;20249;-67
2021/11/29 05:16:29;;;;;;;29.23;17.13;;;3.60;99.90;;;;;;5054849;28;20647;-67
2021/11/29 05:18:56;;;;;;;29.08;18.08;;;3.60;99.90;;;;;;5055160;28;20269;-67
2021/11/29 05:21:23;;;;;;;27.08;14.00;;;3.50;99.90;;;;;;5055071;28;20310;-67
2021/11/29 05:23:50;;;;;;;29.27;16.92;;;3.50;99.90;;;;;;5054984;28;20653;-67
2021/11/29 05:26:20;;;;;;;24.73;15.20;;;3.40;99.90;;;;;;5054857;28;20239;-67
2021/11/29 05:28:47;;;;;;;32.88;16.58;;;3.40;99.90;;;;;;5054888;28;20203;-67
2021/11/29 05:31:15;;;;;;;27.48;16.10;;;3.40;99.90;;;;;;5054928;28;20254;-67
2021/11/29 05:33:42;;;;;;;29.60;17.90;;;3.50;99.90;;;;;;5054744;28;20697;-67
2021/11/29 05:36:09;;;;;;;29.48;19.35;;;3.50;99.90;;;;;;5054352;28;20242;-68
2021/11/29 05:38:36;;;;;;;28.95;16.70;;;3.50;99.90;;;;;;5054508;28;20290;-67
2021/11/29 05:41:03;;;;;;;26.60;14.45;;;3.50;99.90;;;;;;5054391;28;20757;-67
2021/11/29 05:43:30;;;;;;;24.50;15.60;;;3.40;99.90;;;;;;5054670;28;20290;-67
2021/11/29 05:45:59;;;;;;;28.83;16.40;;;3.40;99.90;;;;;;5054654;28;20235;-67
2021/11/29 05:48:29;;;;;;;27.27;16.38;;;3.40;99.90;;;;;;5054541;28;20199;-66
2021/11/29 05:50:56;;;;;;;29.48;18.15;;;3.50;99.90;;;;;;5054290;28;20227;-67
2021/11/29 05:53:23;;;;;;;31.95;18.67;;;3.40;99.90;;;;;;5054401;28;20239;-67
2021/11/29 05:55:50;;;;;;;33.83;19.95;;;3.40;99.90;;;;;;5053916;28;20290;-67
2021/11/29 05:58:17;;;;;;;31.40;17.98;;;3.30;99.90;;;;;;5054389;28;20294;-67
2021/11/29 06:00:44;;;;;;;32.80;19.27;;;3.40;99.90;;;;;;5054252;28;20255;-67
2021/11/29 06:03:11;;;;;;;32.05;19.23;;;3.30;99.90;;;;;;5054279;28;20235;-67
2021/11/29 06:05:39;;;;;;;29.70;19.10;;;3.30;99.90;;;;;;5053826;28;20286;-67
2021/11/29 06:08:06;;;;;;;27.85;17.98;;;3.30;99.90;;;;;;5054259;28;20633;-67
2021/11/29 06:10:33;;;;;;;30.55;18.98;;;3.30;99.90;;;;;;5054071;28;20259;-67
2021/11/29 06:13:00;;;;;;;27.58;15.93;;;3.30;99.90;;;;;;5054075;28;20286;-67
2021/11/29 06:15:27;;;;;;;28.38;16.33;;;3.30;99.90;;;;;;5053688;28;20306;-67
2021/11/29 06:17:54;;;;;;;28.27;17.30;;;3.30;99.90;;;;;;5053938;28;20239;-67
2021/11/29 06:20:22;;;;;;;23.48;14.35;;;3.30;99.90;;;;;;5053993;28;20310;-67
2021/11/29 06:22:51;;;;;;;29.30;16.55;;;3.30;99.90;;;;;;5053774;28;20208;-67
2021/11/29 06:25:19;;;;;;;28.90;16.15;;;3.20;99.90;;;;;;5054016;28;20239;-67
2021/11/29 06:27:46;;;;;;;20.83;11.05;;;3.30;99.90;;;;;;5053861;28;20234;-67
2021/11/29 06:30:14;;;;;;;27.60;16.48;;;3.30;99.90;;;;;;5053796;28;20258;-67
2021/11/29 06:32:41;;;;;;;23.70;14.88;;;3.20;99.90;;;;;;5053792;28;20612;-67
2021/11/29 06:35:10;;;;;;;23.55;13.15;;;3.20;99.90;;;;;;5053584;28;20298;-67
2021/11/29 06:37:37;;;;;;;24.55;14.05;;;3.30;99.90;;;;;;5053764;28;20627;-67
2021/11/29 06:40:07;;;;;;;26.35;15.60;;;3.30;99.90;;;;;;5053613;28;20250;-67
2021/11/29 06:42:34;;;;;;;26.95;15.90;;;3.20;99.90;;;;;;5053896;28;20294;-67
2021/11/29 06:45:01;;;;;;;10.68;6.55;;;3.20;99.90;;;;;;5053326;28;20638;-67
2021/11/29 06:47:28;;;;;;;24.33;15.35;;;3.30;99.90;;;;;;5053369;28;20697;-67
2021/11/29 06:49:55;;;;;;;24.00;15.05;;;3.20;99.90;;;;;;5053429;28;20265;-67
2021/11/29 06:52:22;;;;;;;22.50;14.27;;;3.30;99.90;;;;;;5053551;28;20299;-67
2021/11/29 06:54:50;;;;;;;24.90;14.38;;;3.30;99.90;;;;;;5053340;28;20314;-67
2021/11/29 06:57:19;;;;;;;20.60;13.35;;;3.30;99.90;;;;;;5053508;28;20214;-67
2021/11/29 06:59:46;;;;;;;24.70;14.65;;;3.40;99.90;;;;;;5053393;28;20627;-67
2021/11/29 07:02:16;;;;;;;20.38;12.50;;;3.40;99.90;;;;;;5053447;28;20206;-67
2021/11/29 07:04:42;;;;;;;22.60;12.82;;;3.40;99.90;;;;;;5053077;28;20294;-67
2021/11/29 07:07:09;;;;;;;20.40;13.07;;;3.40;99.90;;;;;;5055628;28;20293;-67
2021/11/29 07:09:36;;;;;;;19.38;11.73;;;3.30;99.90;;;;;;5057437;28;20269;-67
2021/11/29 07:12:05;;;;;;;21.67;13.27;;;3.30;99.90;;;;;;5057200;28;20237;-67
2021/11/29 07:14:34;;;;;;;19.73;12.80;;;3.30;99.90;;;;;;5057308;28;20205;-68
2021/11/29 07:17:02;;;;;;;19.90;12.20;;;3.30;99.90;;;;;;5057184;28;20249;-67
2021/11/29 07:19:29;;;;;;;17.80;11.65;;;3.30;99.90;;;;;;5057044;28;20818;-67
2021/11/29 07:21:55;;;;;;;21.13;11.07;;;3.40;99.90;;;;;;5057411;28;20231;-67
2021/11/29 07:24:23;;;;;;;20.60;11.60;;;3.40;99.90;;;;;;5057108;28;20239;-68
2021/11/29 07:26:49;;;;;;;17.40;10.95;;;3.40;99.90;;;;;;5056944;28;20254;-67
2021/11/29 07:29:17;;;;;;;18.10;10.82;;;3.30;99.90;;;;;;5056927;28;20238;-67
2021/11/29 07:31:45;;;;;;;17.77;11.55;;;3.30;99.90;;;;;;5057130;28;20277;-67
2021/11/29 07:34:12;;;;;;;19.27;11.50;;;3.30;99.90;;;;;;5057118;28;20631;-67
2021/11/29 07:36:39;;;;;;;17.83;9.70;;;3.30;99.90;;;;;;5056933;28;20238;-67
2021/11/29 07:39:08;;;;;;;15.82;10.18;;;3.20;99.90;;;;;;5056913;28;20242;-67
2021/11/29 07:41:35;;;;;;;15.93;9.55;;;3.30;99.90;;;;;;5056737;28;20235;-67
2021/11/29 07:44:02;;;;;;;13.48;7.78;;;3.30;99.90;;;;;;5056701;28;20295;-67
2021/11/29 07:46:29;;;;;;;16.35;9.65;;;3.40;99.90;;;;;;5056727;28;20254;-67
2021/11/29 07:48:57;;;;;;;15.27;10.23;;;3.40;99.90;;;;;;5056857;28;20261;-67
2021/11/29 07:51:24;;;;;;;15.63;9.27;;;3.50;99.90;;;;;;5056751;28;20231;-67
2021/11/29 07:53:53;;;;;;;14.43;9.38;;;3.40;99.90;;;;;;5056692;28;20215;-67
2021/11/29 07:56:20;;;;;;;14.65;9.13;;;3.40;99.90;;;;;;5056326;28;20212;-67
2021/11/29 07:58:47;;;;;;;16.05;9.65;;;3.40;99.90;;;;;;5056474;28;20290;-67
2021/11/29 08:01:15;;;;;;;19.83;11.48;;;3.50;99.90;;;;;;5057064;28;20251;-67
2021/11/29 08:03:43;;;;;;;15.25;9.25;;;3.40;99.90;;;;;;5056474;28;20290;-67
2021/11/29 08:06:11;;;;;;;13.27;8.73;;;3.40;99.90;;;;;;5056044;28;20754;-67
2021/11/29 08:08:38;;;;;;;14.70;8.45;;;3.40;99.90;;;;;;5056457;28;20286;-67
2021/11/29 08:11:05;;;;;;;13.57;8.75;;;3.40;99.90;;;;;;5056366;28;20255;-67
2021/11/29 08:13:32;;;;;;;11.27;6.75;;;3.40;99.90;;;;;;5056384;28;20241;-67
2021/11/29 08:15:58;;;;;;;14.85;9.18;;;3.40;99.90;;;;;;5056092;28;20306;-67
2021/11/29 08:18:25;;;;;;;12.93;7.57;;;3.40;99.90;;;;;;5055983;28;20231;-67
2021/11/29 08:20:52;;;;;;;13.63;8.80;;;3.40;99.90;;;;;;5056083;28;20277;-67
2021/11/29 08:23:20;;;;;;;14.95;9.05;;;3.40;99.90;;;;;;5056164;28;20292;-67
2021/11/29 08:25:47;;;;;;;10.30;6.85;;;3.50;99.90;;;;;;5055808;28;20239;-67
2021/11/29 08:28:14;;;;;;;14.82;8.23;;;3.50;99.90;;;;;;5056166;28;20624;-67
2021/11/29 08:30:42;;;;;;;13.35;8.88;;;3.60;99.90;;;;;;5055624;28;20227;-67
2021/11/29 08:33:12;;;;;;;13.25;8.80;;;3.60;99.90;;;;;;5055801;28;20301;-67
2021/11/29 08:35:39;;;;;;;10.50;7.63;;;3.70;99.90;;;;;;5055818;28;20210;-67
2021/11/29 08:38:06;;;;;;;16.98;8.60;;;3.70;99.90;;;;;;5055718;28;20238;-67
2021/11/29 08:40:35;;;;;;;12.57;8.60;;;3.70;99.90;;;;;;5055900;28;20624;-67
2021/11/29 08:43:04;;;;;;;14.25;9.02;;;3.70;99.90;;;;;;5055898;28;20231;-67
2021/11/29 08:45:32;;;;;;;11.95;8.10;;;3.80;99.90;;;;;;5055520;28;20207;-67
2021/11/29 08:48:01;;;;;;;13.07;8.85;;;3.90;99.90;;;;;;5055668;28;20215;-67
2021/11/29 08:50:28;;;;;;;11.02;6.97;;;4.00;99.90;;;;;;5055621;28;20227;-67
2021/11/29 08:52:55;;;;;;;10.93;7.53;;;4.00;99.90;;;;;;5055703;28;20234;-67
2021/11/29 08:55:22;;;;;;;19.13;7.90;;;4.00;99.90;;;;;;5055477;28;20246;-67
2021/11/29 08:57:50;;;;;;;15.32;8.13;;;4.10;99.90;;;;;;5055899;28;20401;-67
2021/11/29 09:00:18;;;;;;;10.80;7.75;;;4.10;99.90;;;;;;5055272;28;20257;-67
2021/11/29 09:02:46;;;;;;;11.00;7.40;;;4.10;99.90;;;;;;5055208;28;20262;-67
2021/11/29 09:05:15;;;;;;;11.90;7.75;;;4.00;99.90;;;;;;5055199;28;20294;-67
2021/11/29 09:07:42;;;;;;;8.10;5.82;;;4.00;99.90;;;;;;5055227;28;20677;-67
2021/11/29 09:10:10;;;;;;;10.82;6.75;;;3.80;99.90;;;;;;5055084;28;20336;-67
2021/11/29 09:12:38;;;;;;;10.32;6.80;;;3.60;99.90;;;;;;5055014;28;20238;-67
2021/11/29 09:15:09;;;;;;;12.02;7.07;;;3.60;99.90;;;;;;5054799;28;20295;-68
2021/11/29 09:17:37;;;;;;;8.95;4.93;;;3.60;99.90;;;;;;5055006;28;20693;-67
2021/11/29 09:20:05;;;;;;;8.85;5.47;;;3.50;99.90;;;;;;5055050;28;20219;-67
2021/11/29 09:22:31;;;;;;;10.82;6.82;;;3.50;99.90;;;;;;5055070;28;20602;-67
2021/11/29 09:25:00;;;;;;;11.43;6.38;;;3.40;99.90;;;;;;5054755;28;20685;-67
2021/11/29 09:27:27;;;;;;;14.38;6.63;;;3.40;99.90;;;;;;5055005;28;20208;-67
2021/11/29 09:29:54;;;;;;;10.95;6.25;;;3.40;99.90;;;;;;5053949;28;20314;-67
2021/11/29 09:32:23;;;;;;;14.07;7.28;;;3.50;99.90;;;;;;5054617;28;20310;-67
2021/11/29 09:34:50;;;;;;;8.98;5.25;;;3.50;99.90;;;;;;5054496;28;20736;-66
2021/11/29 09:37:19;;;;;;;14.50;8.00;;;3.50;99.90;;;;;;5054844;28;20622;-67
2021/11/29 09:39:46;;;;;;;5.78;3.95;;;3.40;99.90;;;;;;5054687;28;20637;-67
2021/11/29 09:42:14;;;;;;;9.13;5.40;;;3.40;99.90;;;;;;5054431;28;20222;-67
2021/11/29 09:44:42;;;;;;;10.80;5.32;;;3.50;99.90;;;;;;5054469;28;20285;-67
2021/11/29 09:47:10;;;;;;;9.38;6.10;;;3.50;99.90;;;;;;5054670;28;20602;-67
2021/11/29 09:49:39;;;;;;;10.45;5.30;;;3.60;99.90;;;;;;5054469;28;20633;-67
2021/11/29 09:52:05;;;;;;;3.38;2.67;;;3.60;99.90;;;;;;5054210;28;20288;-67
2021/11/29 09:54:32;;;;;;;8.25;5.00;;;3.70;99.90;;;;;;5054239;28;20200;-67
2021/11/29 09:56:59;;;;;;;7.10;4.30;;;3.60;99.90;;;;;;5054161;28;20253;-67
2021/11/29 09:59:28;;;;;;;5.75;4.43;;;3.80;99.90;;;;;;5054336;28;20614;-67
2021/11/29 10:01:56;;;;;;;6.05;4.55;;;4.00;99.90;;;;;;5054386;28;20249;-67
2021/11/29 10:04:24;;;;;;;8.18;4.18;;;4.00;99.90;;;;;;5054123;28;20629;-67
2021/11/29 10:06:55;;;;;;;7.80;4.10;;;4.10;99.90;;;;;;5054188;28;20632;-67
2021/11/29 10:09:31;;;;;;;6.70;5.20;;;4.20;99.90;;;;;;5053874;28;20207;-67
2021/11/29 10:12:27;;;;;;;8.20;5.03;;;4.10;99.90;;;;;;5054136;28;20598;-67
2021/11/29 10:15:21;;;;;;;7.10;4.70;;;4.30;99.90;;;;;;5053790;28;20670;-67
2021/11/29 10:17:52;;;;;;;8.00;4.90;;;4.50;99.90;;;;;;5054070;28;20561;-67
2021/11/29 10:20:20;;;;;;;7.30;4.53;;;4.60;99.90;;;;;;5054074;28;20310;-67
2021/11/29 10:23:08;;;;;;;7.10;4.32;;;4.60;99.90;;;;;;5053987;28;20294;-67
2021/11/29 10:25:42;;;;;;;6.40;5.45;;;4.70;99.90;;;;;;5053684;28;20269;-67
2021/11/29 10:28:23;;;;;;;7.07;3.80;;;4.80;99.90;;;;;;5053940;28;20217;-67
2021/11/29 10:31:11;;;;;;;6.20;4.25;;;4.90;99.90;;;;;;5053499;28;20272;-67
2021/11/29 10:33:55;;;;;;;11.32;4.90;;;5.00;99.90;;;;;;5053882;28;20230;-67
2021/11/29 10:36:23;;;;;;;7.82;4.78;;;4.90;99.90;;;;;;5053619;28;20239;-67
2021/11/29 10:38:56;;;;;;;7.20;3.97;;;4.90;99.90;;;;;;5053707;28;20199;-67
2021/11/29 10:41:34;;;;;;;7.47;4.78;;;4.80;99.90;;;;;;5053719;28;20588;-67
2021/11/29 10:44:02;;;;;;;7.93;4.18;;;4.90;99.90;;;;;;5053735;28;20626;-67
2021/11/29 10:46:32;;;;;;;4.32;3.10;;;4.90;99.90;;;;;;5053475;28;20620;-67
2021/11/29 10:49:01;;;;;;;6.43;4.55;;;5.00;99.90;;;;;;5053533;28;20228;-67
2021/11/29 10:51:28;;;;;;;5.63;4.72;;;4.80;99.90;;;;;;5053515;28;20220;-67
2021/11/29 10:53:59;;;;;;;6.65;4.55;;;4.80;99.90;;;;;;5053588;28;20290;-67
2021/11/29 10:56:29;;;;;;;6.18;4.35;;;4.90;99.90;;;;;;5053304;28;20239;-67
2021/11/29 10:59:00;;;;;;;7.00;4.45;;;5.00;99.90;;;;;;5053503;28;20235;-67
2021/11/29 11:01:36;;;;;;;6.97;4.70;;;5.00;99.90;;;;;;5053402;28;20649;-67
2021/11/29 11:04:04;;;;;;;8.63;5.28;;;5.00;99.90;;;;;;5053464;28;20203;-67
2021/11/29 11:06:33;;;;;;;8.00;5.78;;;4.80;99.90;;;;;;5053126;28;20752;-67
2021/11/29 11:09:09;;;;;;;6.93;4.45;;;4.80;99.90;;;;;;5053372;28;20235;-67
2021/11/29 11:11:39;;;;;;;7.10;4.80;;;4.70;99.90;;;;;;5053375;28;20656;-67
2021/11/29 11:14:08;;;;;;;9.52;4.95;;;4.60;99.90;;;;;;5053400;28;20245;-67
2021/11/29 11:16:50;;;;;;;3.83;2.17;;;4.60;99.90;;;;;;5053016;28;20247;-67
2021/11/29 11:19:26;;;;;;;9.18;5.60;;;4.50;99.90;;;;;;5053154;28;20677;-67
2021/11/29 11:21:54;;;;;;;9.23;5.40;;;4.40;99.90;;;;;;5053382;28;20215;-66
2021/11/29 11:24:26;;;;;;;9.52;5.30;;;4.40;99.90;;;;;;5053132;28;20207;-67
2021/11/29 11:26:56;;;;;;;6.75;5.10;;;4.40;99.90;;;;;;5053673;28;20242;-67
2021/11/29 11:29:39;;;;;;;6.40;4.43;;;4.40;99.90;;;;;;5053146;28;20213;-67
2021/11/29 11:32:22;;;;;;;4.75;3.67;;;4.40;99.90;;;;;;5053142;28;20258;-67
2021/11/29 11:34:52;;;;;;;7.55;5.22;;;4.40;99.90;;;;;;5052832;28;20649;-67
2021/11/29 11:37:21;;;;;;;6.47;5.03;;;4.30;99.90;;;;;;5053146;28;20297;-67
2021/11/29 11:39:51;;;;;;;7.05;5.20;;;4.20;99.90;;;;;;5053142;28;20293;-67
2021/11/29 11:42:18;;;;;;;5.95;4.55;;;4.20;99.90;;;;;;5053171;28;20200;-67
2021/11/29 11:44:45;;;;;;;8.88;5.82;;;4.20;99.90;;;;;;5053019;28;20297;-67
2021/11/29 11:47:13;;;;;;;8.27;6.30;;;4.20;99.90;;;;;;5053059;28;20632;-67
2021/11/29 11:49:43;;;;;;;4.40;3.17;;;4.20;99.90;;;;;;5052707;28;20227;-67
2021/11/29 11:52:12;;;;;;;7.40;4.72;;;4.20;99.90;;;;;;5053574;28;20269;-67
2021/11/29 11:54:40;;;;;;;9.85;5.90;;;4.20;99.90;;;;;;5056424;28;20239;-67
2021/11/29 11:57:10;;;;;;;9.55;5.85;;;4.20;99.90;;;;;;5056728;28;20204;-67
2021/11/29 11:59:49;;;;;;;6.30;4.82;;;4.20;99.90;;;;;;5056539;28;20310;-67
2021/11/29 12:02:19;;;;;;;7.03;5.68;;;4.20;99.90;;;;;;5056470;28;20722;-67
2021/11/29 12:05:13;;;;;;;7.05;5.43;;;4.20;99.90;;;;;;5056538;28;20224;-67
2021/11/29 12:07:40;;;;;;;7.70;5.53;;;4.30;99.90;;;;;;5056579;28;20581;-67
2021/11/29 12:10:39;;;;;;;11.23;5.82;;;4.40;99.90;;;;;;5056312;28;20251;-67
2021/11/29 12:13:11;;;;;;;10.48;5.47;;;4.50;99.90;;;;;;5056099;28;20318;-67
2021/11/29 12:15:42;;;;;;;7.35;5.63;;;4.60;99.90;;;;;;5055985;28;20550;-67
2021/11/29 12:18:11;;;;;;;7.93;5.50;;;4.70;99.90;;;;;;5056312;28;20253;-67
2021/11/29 12:20:38;;;;;;;9.82;6.30;;;4.90;99.90;;;;;;5056287;28;20310;-67
2021/11/29 12:23:26;;;;;;;7.38;5.75;;;5.00;99.90;;;;;;5056211;28;20231;-67
2021/11/29 12:25:52;;;;;;;9.35;6.10;;;4.90;99.90;;;;;;5055626;28;20705;-67
2021/11/29 12:28:37;;;;;;;5.90;5.30;;;4.70;99.90;;;;;;5056044;28;20294;-67
2021/11/29 12:31:04;;;;;;;7.10;5.15;;;4.70;99.90;;;;;;5056002;28;20708;-67
2021/11/29 12:33:45;;;;;;;5.78;4.40;;;4.60;99.90;;;;;;5056070;28;20246;-67
2021/11/29 12:36:12;;;;;;;7.88;6.70;;;4.60;99.90;;;;;;5055620;28;20660;-67
2021/11/29 12:38:48;;;;;;;6.75;5.07;;;4.60;99.90;;;;;;5055894;28;20200;-67
2021/11/29 12:41:36;;;;;;;8.20;5.68;;;4.50;99.90;;;;;;5055492;28;20234;-67
2021/11/29 12:44:06;;;;;;;8.15;5.60;;;4.60;99.90;;;;;;5055709;28;20210;-67
2021/11/29 12:46:33;;;;;;;8.10;5.60;;;4.60;99.90;;;;;;5055639;28;20203;-67
2021/11/29 12:49:04;;;;;;;9.13;6.25;;;4.60;99.90;;;;;;5055517;28;20246;-67
2021/11/29 12:51:56;;;;;;;7.85;5.68;;;4.60;99.90;;;;;;5055297;28;20761;-67